Terminal Aerodrome Forecast
Issued by NWS

Home | Current Version | Previous Version | Text Only | Print | Product List | Glossary On
Versions: 1 2 3 4 5 6 7 8 9 10 11 12 13 14 15 16
000
FTUS42 KMHX 221735
TAFPGV
TAF
KPGV 221735Z 2218/2318 22010G18KT P6SM VCSH SCT025 BKN040
      TEMPO 2220/2222 5SM -TSRA BKN025CB
     FM230500 VRB04KT 5SM -SHRA SCT015 OVC040
     FM230900 VRB04KT 5SM SHRA SCT007 OVC025
     FM231500 16010G15KT 5SM SHRA VCTS SCT007 OVC015CB
      AMD LTD TO CLD VIS AND WIND=

USA.gov is the U.S. government's official web portal to all federal, state and local government web resources and services.